Time;durP1;ratioP1;P1;durP2;ratioP2;P2;SDS_P1;SDS_P2;PMS_P1;PMS_P2;Temp;Humidity;BMP_temperature;BMP_pressure;BME280_temperature;BME280_humidity;BME280_pressure;Samples;Min_cycle;Max_cycle;Signal;HPM_P1;HPM_P2
2021/10/31 00:01:08;;;;;;;21.10;13.80;;;;;;;7.48;72.17;98989.98;1713452;81;20921;-68
2021/10/31 00:03:34;;;;;;;18.85;13.00;;;;;;;7.43;72.13;98996.30;1714088;82;20980;-68
2021/10/31 00:06:01;;;;;;;17.73;10.88;;;;;;;7.34;72.12;98986.72;1711620;82;21001;-68
2021/10/31 00:08:28;;;;;;;23.50;13.20;;;;;;;7.27;72.15;98982.70;1711142;82;21156;-67
2021/10/31 00:10:56;;;;;;;19.92;13.55;;;;;;;7.23;72.24;98993.31;1712629;82;21032;-68
2021/10/31 00:13:24;;;;;;;21.17;13.38;;;;;;;7.18;72.24;98985.73;1709275;82;21006;-68
2021/10/31 00:15:51;;;;;;;;;;;;;;;7.13;72.23;98985.08;1707445;83;21496;-68
2021/10/31 00:18:18;;;;;;;23.02;13.60;;;;;;;7.09;72.25;98982.25;1709862;82;20126;-68
2021/10/31 00:20:44;;;;;;;21.93;13.98;;;;;;;7.02;72.26;98969.15;1712441;82;21376;-68
2021/10/31 00:23:11;;;;;;;23.00;13.20;;;;;;;6.98;72.29;98976.70;1707134;82;21048;-68
2021/10/31 00:25:38;;;;;;;22.43;13.70;;;;;;;6.94;72.38;98969.02;1694601;83;21041;-68
2021/10/31 00:28:04;;;;;;;21.02;13.53;;;;;;;6.93;72.36;98971.23;1690223;83;21267;-68
2021/10/31 00:30:31;;;;;;;27.47;13.97;;;;;;;6.88;72.34;98978.38;1712362;82;20973;-67
2021/10/31 00:32:58;;;;;;;23.25;12.90;;;;;;;6.86;72.39;98990.60;1713625;82;21235;-67
2021/10/31 00:35:25;;;;;;;20.88;12.98;;;;;;;6.86;72.43;98990.60;1702256;83;21025;-67
2021/10/31 00:37:51;;;;;;;21.40;13.00;;;;;;;6.87;72.42;98996.63;1683525;83;21041;-67
2021/10/31 00:40:20;;;;;;;20.68;13.35;;;;;;;6.85;72.38;98990.19;1685793;83;21116;-67
2021/10/31 00:42:47;;;;;;;21.70;13.85;;;;;;;6.83;72.44;98989.41;1688994;83;20966;-68
2021/10/31 00:45:14;;;;;;;20.65;11.85;;;;;;;6.82;72.45;98995.52;1691558;84;26747;-68
2021/10/31 00:47:40;;;;;;;23.12;13.88;;;;;;;6.82;72.46;98989.03;1684949;83;21140;-68
2021/10/31 00:50:08;;;;;;;26.40;13.90;;;;;;;6.85;72.52;98988.89;1693324;83;20985;-68
2021/10/31 00:52:37;;;;;;;24.40;12.98;;;;;;;6.85;72.50;98990.19;1688341;83;21111;-68
2021/10/31 00:55:05;;;;;;;17.55;12.60;;;;;;;6.87;72.49;98992.73;1689393;83;21010;-68
2021/10/31 00:57:32;;;;;;;18.48;12.95;;;;;;;6.88;72.51;98982.27;1682373;83;21915;-68
2021/10/31 00:59:59;;;;;;;21.52;12.70;;;;;;;6.88;72.50;98979.67;1683884;83;21091;-68
2021/10/31 01:02:26;;;;;;;22.13;13.13;;;;;;;6.90;72.53;98974.44;1684362;83;20966;-68
2021/10/31 01:04:59;;;;;;;20.88;13.25;;;;;;;6.90;72.50;98982.22;1688816;83;21074;-68
2021/10/31 01:07:42;;;;;;;23.42;13.32;;;;;;;6.90;72.51;98975.27;1688371;84;20982;-68
2021/10/31 01:11:04;;;;;;;20.85;13.15;;;;;;;6.89;72.50;98978.78;1688160;84;22041;-68
2021/10/31 01:13:54;;;;;;;24.60;13.85;;;;;;;6.92;72.59;98978.65;1684243;83;20965;-68
2021/10/31 01:16:32;;;;;;;23.65;14.35;;;;;;;6.94;72.50;98979.40;1687848;84;21509;-68
2021/10/31 01:19:36;;;;;;;19.27;13.98;;;;;;;6.98;72.59;98978.00;1683962;83;21553;-68
2021/10/31 01:22:30;;;;;;;25.68;13.88;;;;;;;7.00;72.52;98970.96;1685918;83;21065;-68
2021/10/31 01:25:22;;;;;;;26.07;13.78;;;;;;;6.99;72.52;98967.98;1713891;83;21097;-68
2021/10/31 01:29:50;;;;;;;24.70;14.53;;;;;;;7.03;72.46;98964.33;1834949;77;23683;-68
2021/10/31 01:32:39;;;;;;;20.37;14.10;;;;;;;6.97;72.47;98965.91;1699406;82;20971;-67
2021/10/31 01:35:57;;;;;;;23.92;13.95;;;;;;;6.97;72.51;98971.09;1674293;82;21574;-68
2021/10/31 01:39:08;;;;;;;23.35;13.55;;;;;;;6.98;72.54;98967.61;1677548;83;21150;-67
2021/10/31 01:42:03;;;;;;;20.72;14.07;;;;;;;6.99;72.50;98991.34;1666713;83;21104;-68
2021/10/31 01:44:39;;;;;;;24.90;14.45;;;;;;;6.94;72.45;98996.27;1681033;83;21117;-68
2021/10/31 01:47:29;;;;;;;21.30;13.55;;;;;;;6.93;72.50;98993.30;1655817;84;21129;-68
2021/10/31 01:50:53;;;;;;;19.73;14.13;;;;;;;6.92;72.51;99004.60;1707921;81;21268;-68
2021/10/31 01:53:57;;;;;;;22.48;13.90;;;;;;;6.92;72.51;99002.00;1737609;81;21095;-68
2021/10/31 01:56:33;;;;;;;25.23;14.15;;;;;;;6.90;72.47;99002.52;1737731;80;21034;-68
2021/10/31 01:59:11;;;;;;;20.37;14.60;;;;;;;6.89;72.44;98996.95;1702574;82;21407;-68
2021/10/31 02:04:50;;;;;;;21.68;14.00;;;;;;;6.86;72.50;99002.28;1629411;85;21050;-68
2021/10/31 02:07:24;;;;;;;22.98;14.63;;;;;;;6.84;72.54;98998.90;1649992;85;21609;-68
2021/10/31 02:10:09;;;;;;;22.27;14.83;;;;;;;6.85;72.57;99003.17;1664591;83;21344;-67
2021/10/31 02:12:58;;;;;;;18.77;13.03;;;;;;;6.86;72.52;99004.88;1680246;84;21085;-68
2021/10/31 02:15:29;;;;;;;18.75;13.78;;;;;;;6.85;72.51;99010.95;1667284;83;21405;-68
2021/10/31 02:18:06;;;;;;;20.80;13.70;;;;;;;6.84;72.47;99011.88;1680791;84;21079;-68
2021/10/31 02:20:40;;;;;;;20.68;12.88;;;;;;;6.81;72.45;99015.91;1618519;86;21113;-68
2021/10/31 02:23:36;;;;;;;23.98;13.65;;;;;;;6.78;72.51;99015.17;1654812;85;21012;-68
2021/10/31 02:26:06;;;;;;;23.83;15.00;;;;;;;6.79;72.60;99016.88;1669733;84;21065;-67
2021/10/31 02:28:41;;;;;;;18.05;13.78;;;;;;;6.81;72.62;99006.82;1658510;84;21049;-67
2021/10/31 02:31:22;;;;;;;20.50;14.55;;;;;;;6.80;72.60;99005.11;1671172;84;20954;-68
2021/10/31 02:33:57;;;;;;;24.98;14.33;;;;;;;6.83;72.66;99015.36;1673518;84;21073;-69
2021/10/31 02:36:26;;;;;;;22.32;14.78;;;;;;;6.86;72.61;99017.84;1683158;84;20970;-69
2021/10/31 02:39:01;;;;;;;19.92;14.45;;;;;;;6.85;72.60;99013.55;1668562;84;21307;-66
2021/10/31 02:41:30;;;;;;;22.00;13.93;;;;;;;6.87;72.61;99016.93;1673148;84;21093;-67
2021/10/31 02:44:04;;;;;;;21.05;14.47;;;;;;;6.84;72.56;99022.25;1681253;84;22070;-68
2021/10/31 02:46:37;;;;;;;24.65;15.23;;;;;;;6.80;72.57;99029.77;1679428;84;21804;-67
2021/10/31 02:49:08;;;;;;;21.05;14.83;;;;;;;6.77;72.61;99020.81;1648550;84;21042;-67
2021/10/31 02:52:06;;;;;;;21.62;13.15;;;;;;;6.75;72.59;99026.55;1679052;84;21028;-68
2021/10/31 02:55:11;;;;;;;18.82;12.95;;;;;;;6.74;72.61;99026.14;1667950;84;21777;-67
2021/10/31 02:58:31;;;;;;;;;;;;;;;;;;;;;
2021/10/31 03:01:31;;;;;;;21.97;14.28;;;;;;;6.72;72.65;99038.33;1608186;86;21737;-67
2021/10/31 03:04:31;;;;;;;19.65;13.80;;;;;;;6.66;72.66;99030.34;1642326;85;21058;-68
2021/10/31 03:07:05;;;;;;;;;;;;;;;6.64;72.73;99038.67;1653133;85;21000;-68
2021/10/31 03:09:47;;;;;;;21.25;13.85;;;;;;;6.63;72.72;99035.67;1661450;84;20580;-68
2021/10/31 03:12:32;;;;;;;19.37;14.25;;;;;;;6.61;72.74;99045.72;1658189;84;21173;-68
2021/10/31 03:15:14;;;;;;;20.48;14.78;;;;;;;6.59;72.73;99035.88;1632413;86;21034;-68
2021/10/31 03:17:47;;;;;;;21.73;15.10;;;;;;;6.59;72.74;99055.34;1652619;85;21126;-69
2021/10/31 03:20:25;;;;;;;20.48;13.85;;;;;;;6.55;72.75;99050.70;1656622;85;21092;-68
2021/10/31 03:25:58;;;;;;;;;;;;;;;;;;;;;
2021/10/31 03:29:10;;;;;;;27.87;14.93;;;;;;;6.45;72.77;99063.22;1567999;89;21212;-66
2021/10/31 03:31:40;;;;;;;25.17;15.10;;;;;;;6.42;72.81;99058.17;1567724;89;21226;-67
2021/10/31 03:34:13;;;;;;;22.65;15.65;;;;;;;6.43;72.87;99062.44;1553286;91;21253;-67
2021/10/31 03:37:20;;;;;;;21.23;13.58;;;;;;;6.44;72.89;99065.44;1554432;89;21178;-67
2021/10/31 03:39:50;;;;;;;23.62;15.43;;;;;;;6.44;72.89;99070.63;1577231;89;21433;-67
2021/10/31 03:42:26;;;;;;;21.80;13.35;;;;;;;6.42;72.87;99072.43;1561600;89;21304;-67
2021/10/31 03:45:06;;;;;;;22.07;14.85;;;;;;;6.40;72.93;99074.23;1557950;89;21749;-68
2021/10/31 03:47:47;;;;;;;18.75;13.75;;;;;;;6.42;72.97;99080.21;1579695;89;25589;-68
2021/10/31 03:50:23;;;;;;;19.45;13.98;;;;;;;6.42;72.99;99084.09;1574713;89;20987;-68
2021/10/31 03:53:02;;;;;;;25.57;15.72;;;;;;;6.44;73.02;99083.59;1564279;89;21982;-68
2021/10/31 03:55:50;;;;;;;19.75;14.98;;;;;;;6.48;73.09;99085.14;1579934;89;20931;-68
2021/10/31 03:58:23;;;;;;;20.27;15.25;;;;;;;6.52;73.04;99081.13;1582541;89;20964;-68
2021/10/31 04:01:10;;;;;;;20.68;15.20;;;;;;;6.53;73.05;99073.75;1581774;89;21167;-67
2021/10/31 04:03:43;;;;;;;21.93;14.63;;;;;;;6.50;73.05;99078.15;1625181;86;21555;-68
2021/10/31 04:06:13;;;;;;;23.40;14.40;;;;;;;6.54;73.09;99082.75;1632028;86;21795;-68
2021/10/31 04:08:45;;;;;;;17.73;13.85;;;;;;;6.55;73.06;99082.29;1633843;85;21971;-68
2021/10/31 04:11:43;;;;;;;;;;;;;;;;;;;;;
2021/10/31 04:14:15;;;;;;;18.37;13.85;;;;;;;6.56;73.06;99080.11;1621088;85;21008;-68
2021/10/31 04:17:11;;;;;;;23.07;15.53;;;;;;;6.55;73.10;99079.70;1603279;88;20964;-68
2021/10/31 04:20:00;;;;;;;20.97;14.13;;;;;;;6.58;73.14;99075.67;1607389;88;21168;-68
2021/10/31 04:22:47;;;;;;;;;;;;;;;;;;;;;
2021/10/31 04:25:36;;;;;;;21.87;14.75;;;;;;;6.57;73.14;99085.67;1609362;88;21025;-68
2021/10/31 04:28:17;;;;;;;19.32;14.93;;;;;;;6.56;73.12;99081.41;1635831;86;21501;-68
2021/10/31 04:33:29;;;;;;;24.27;15.43;;;;;;;6.58;73.22;99095.13;1643911;86;21724;-68
2021/10/31 04:36:17;;;;;;;21.02;14.20;;;;;;;6.58;73.22;99092.54;1639457;86;21526;-67
2021/10/31 04:38:45;;;;;;;22.45;15.05;;;;;;;6.58;73.23;99097.73;1618669;86;20897;-67
2021/10/31 04:41:26;;;;;;;18.20;14.13;;;;;;;6.59;73.24;99105.45;1615462;87;20968;-67
2021/10/31 04:44:05;;;;;;;23.47;14.75;;;;;;;6.59;73.23;99096.84;1644077;86;20969;-67
2021/10/31 04:46:45;;;;;;;20.62;14.90;;;;;;;6.60;73.22;99095.92;1617776;85;21436;-68
2021/10/31 04:49:15;;;;;;;28.80;15.28;;;;;;;6.56;73.18;99094.37;1643600;86;20952;-68
2021/10/31 04:51:55;;;;;;;22.22;14.28;;;;;;;6.55;73.14;99097.85;1617580;86;21587;-68
2021/10/31 04:54:39;;;;;;;24.52;14.80;;;;;;;6.50;73.16;99096.30;1640425;86;21000;-68
2021/10/31 04:57:12;;;;;;;20.30;13.50;;;;;;;6.48;73.19;99099.86;1643611;85;20980;-68
2021/10/31 04:59:47;;;;;;;27.07;14.00;;;;;;;6.45;73.25;99099.53;1640653;86;20965;-68
2021/10/31 05:02:20;;;;;;;18.02;13.68;;;;;;;6.41;73.20;99104.47;1644380;85;20949;-68
2021/10/31 05:04:58;;;;;;;22.95;15.25;;;;;;;6.37;73.25;99103.34;1637606;85;21064;-68
2021/10/31 05:07:31;;;;;;;21.37;14.65;;;;;;;6.32;73.26;99100.92;1615947;86;21009;-69
2021/10/31 05:10:01;;;;;;;24.52;15.25;;;;;;;6.28;73.28;99095.48;1642248;86;21035;-66
2021/10/31 05:12:31;;;;;;;25.43;14.40;;;;;;;6.24;73.26;99096.48;1639868;86;21229;-66
2021/10/31 05:15:08;;;;;;;19.00;14.20;;;;;;;6.21;73.31;99103.93;1635712;86;21491;-66
2021/10/31 05:17:32;;;;;;;20.43;14.63;;;;;;;6.18;73.35;99099.33;1641509;85;20976;-67
2021/10/31 05:20:05;;;;;;;21.45;15.23;;;;;;;6.15;73.37;99099.45;1651477;85;21488;-67
2021/10/31 05:22:35;;;;;;;20.75;14.80;;;;;;;6.14;73.40;99099.07;1663157;85;21028;-68
2021/10/31 05:25:16;;;;;;;23.00;15.93;;;;;;;6.11;73.44;99099.20;1661754;85;21412;-68
2021/10/31 05:27:48;;;;;;;22.20;15.78;;;;;;;6.11;73.46;99096.60;1661358;85;21027;-69
2021/10/31 05:30:15;;;;;;;23.38;16.40;;;;;;;6.08;73.51;99095.39;1662442;85;21061;-68
2021/10/31 05:32:42;;;;;;;22.43;16.33;;;;;;;6.05;73.53;99098.52;1664240;85;21604;-69
2021/10/31 05:35:11;;;;;;;24.80;15.78;;;;;;;6.04;73.56;99096.81;1657925;85;22133;-69
2021/10/31 05:37:44;;;;;;;24.63;15.55;;;;;;;6.02;73.56;99102.53;1715276;82;21065;-69
2021/10/31 05:40:15;;;;;;;24.12;15.63;;;;;;;5.99;73.58;99096.59;1715840;82;20948;-68
2021/10/31 05:42:42;;;;;;;25.12;16.55;;;;;;;6.00;73.68;99103.03;1713736;82;20921;-68
2021/10/31 05:45:11;;;;;;;22.95;16.12;;;;;;;6.01;73.73;99111.19;1715419;82;20914;-68
2021/10/31 05:47:39;;;;;;;24.92;16.40;;;;;;;6.04;73.78;99108.47;1719873;82;21547;-68
2021/10/31 05:50:09;;;;;;;24.07;16.50;;;;;;;6.07;73.80;99122.23;1720376;82;21822;-68
2021/10/31 05:52:36;;;;;;;22.35;16.17;;;;;;;6.11;73.82;99123.81;1722426;82;21008;-68
2021/10/31 05:55:06;;;;;;;19.85;14.68;;;;;;;6.13;73.83;99129.77;1717407;82;20947;-68
2021/10/31 05:57:32;;;;;;;23.25;16.40;;;;;;;6.15;73.88;99126.67;1714061;82;21002;-68
2021/10/31 05:59:59;;;;;;;21.80;15.70;;;;;;;6.18;73.90;99128.68;1714169;82;20907;-68
2021/10/31 06:02:26;;;;;;;22.80;15.98;;;;;;;6.26;73.97;99130.98;1717055;82;21309;-68
2021/10/31 06:04:53;;;;;;;27.48;17.80;;;;;;;6.38;73.94;99135.67;1719506;82;21967;-68
2021/10/31 06:07:20;;;;;;;20.62;15.78;;;;;;;6.50;73.94;99133.91;1714313;82;21022;-68
2021/10/31 06:09:47;;;;;;;39.23;17.20;;;;;;;6.61;73.87;99137.38;1720956;82;20969;-70
2021/10/31 06:12:16;;;;;;;20.37;15.78;;;;;;;6.64;73.74;99141.59;1716615;82;20958;-70
2021/10/31 06:14:42;;;;;;;23.00;17.20;;;;;;;6.64;73.82;99134.66;1714562;82;21822;-70
2021/10/31 06:17:09;;;;;;;21.63;17.33;;;;;;;6.65;73.83;99132.90;1714907;82;21464;-70
2021/10/31 06:19:37;;;;;;;30.88;17.65;;;;;;;6.67;73.90;99138.88;1713228;82;20962;-70
2021/10/31 06:22:04;;;;;;;27.82;17.60;;;;;;;6.71;73.94;99138.67;1687417;83;27546;-70
2021/10/31 06:24:31;;;;;;;23.42;16.12;;;;;;;6.78;74.00;99141.88;1715042;82;21450;-69
2021/10/31 06:26:58;;;;;;;23.40;16.77;;;;;;;6.92;74.09;99149.94;1716060;82;21089;-69
2021/10/31 06:29:26;;;;;;;19.67;15.45;;;;;;;7.13;74.07;99135.66;1712114;82;20878;-70
2021/10/31 06:31:53;;;;;;;18.37;13.30;;;;;;;7.35;73.93;99144.22;1714887;82;21464;-70
2021/10/31 06:34:19;;;;;;;14.23;12.30;;;;;;;7.54;73.80;99153.36;1718258;82;20925;-69
2021/10/31 06:36:46;;;;;;;16.60;13.07;;;;;;;7.71;73.69;99160.41;1718648;82;21167;-69
2021/10/31 06:39:13;;;;;;;15.75;12.53;;;;;;;7.88;73.72;99164.01;1720591;82;21939;-69
2021/10/31 06:41:40;;;;;;;19.77;13.30;;;;;;;8.03;73.58;99164.59;1711591;82;21505;-68
2021/10/31 06:44:06;;;;;;;15.37;12.90;;;;;;;8.03;73.58;99164.59;1712690;82;21394;-68
2021/10/31 06:46:34;;;;;;;17.92;13.35;;;;;;;8.13;73.69;99163.27;1715885;82;20941;-68
2021/10/31 06:49:00;;;;;;;16.52;12.82;;;;;;;8.19;73.62;99161.69;1717002;82;21501;-68
2021/10/31 06:51:27;;;;;;;20.60;14.73;;;;;;;8.23;73.59;99164.55;1713940;82;21122;-69
2021/10/31 06:53:55;;;;;;;17.70;14.28;;;;;;;8.22;73.57;99161.54;1720572;82;20865;-68
2021/10/31 06:56:28;;;;;;;18.05;13.70;;;;;;;8.22;73.64;99165.90;1720878;82;20894;-69
2021/10/31 06:58:51;;;;;;;18.98;13.85;;;;;;;8.23;73.73;99173.65;1718408;82;22066;-69
2021/10/31 07:01:18;;;;;;;21.02;13.80;;;;;;;8.30;73.86;99175.03;1712632;82;20958;-69
2021/10/31 07:03:48;;;;;;;19.90;14.47;;;;;;;8.35;73.77;99177.89;1713121;82;21420;-68
2021/10/31 07:06:15;;;;;;;17.42;13.35;;;;;;;8.42;73.94;99176.24;1712648;82;21006;-68
2021/10/31 07:08:42;;;;;;;16.12;13.08;;;;;;;8.52;73.90;99179.27;1720267;82;20982;-68
2021/10/31 07:11:10;;;;;;;18.62;12.82;;;;;;;8.63;73.90;99184.80;1715518;82;20971;-68
2021/10/31 07:13:37;;;;;;;17.35;12.23;;;;;;;8.71;73.87;99186.58;1710949;82;21042;-69
2021/10/31 07:16:04;;;;;;;17.25;13.03;;;;;;;8.80;73.81;99183.16;1712388;82;21680;-69
2021/10/31 07:18:31;;;;;;;18.70;13.32;;;;;;;8.90;73.69;99181.77;1713103;82;21005;-69
2021/10/31 07:20:58;;;;;;;15.43;12.23;;;;;;;8.98;73.67;99190.05;1693259;82;21056;-69
2021/10/31 07:23:24;;;;;;;18.23;13.23;;;;;;;9.06;73.75;99187.91;1713639;82;20909;-69
2021/10/31 07:25:51;;;;;;;16.87;13.17;;;;;;;9.19;73.74;99195.50;1714648;82;21351;-69
2021/10/31 07:28:19;;;;;;;17.07;12.90;;;;;;;9.33;73.67;99194.81;1712736;82;21019;-69
2021/10/31 07:30:45;;;;;;;18.70;13.90;;;;;;;9.45;73.64;99189.44;1713200;82;20912;-68
2021/10/31 07:33:13;;;;;;;17.35;13.98;;;;;;;9.54;73.54;99188.95;1713068;82;21032;-69
2021/10/31 07:35:40;;;;;;;16.32;14.15;;;;;;;9.62;73.59;99195.92;1714686;82;21009;-68
2021/10/31 07:38:07;;;;;;;23.45;14.38;;;;;;;9.76;73.70;99206.09;1719887;82;20953;-69
2021/10/31 07:40:33;;;;;;;18.32;14.13;;;;;;;9.88;73.55;99198.92;1714825;82;21034;-69
2021/10/31 07:43:00;;;;;;;16.67;13.10;;;;;;;10.00;73.64;99196.99;1701243;82;20953;-69
2021/10/31 07:45:27;;;;;;;15.83;13.25;;;;;;;10.07;73.36;99207.93;1713952;82;20919;-69
2021/10/31 07:47:55;;;;;;;16.13;12.90;;;;;;;10.07;73.15;99211.38;1712711;82;20970;-69
2021/10/31 07:50:22;;;;;;;18.67;13.25;;;;;;;10.06;73.26;99207.09;1718530;82;21244;-68
2021/10/31 07:52:49;;;;;;;19.48;13.65;;;;;;;10.07;73.19;99211.38;1723957;82;21033;-68
2021/10/31 07:55:18;;;;;;;16.45;12.35;;;;;;;10.11;73.29;99215.98;1714126;82;20922;-69
2021/10/31 07:57:46;;;;;;;16.85;12.50;;;;;;;10.22;73.42;99211.47;1717041;82;21456;-69
2021/10/31 08:00:14;;;;;;;14.90;12.88;;;;;;;10.36;73.40;99212.91;1718637;82;21001;-69
2021/10/31 08:02:40;;;;;;;;;;;;;;;10.49;73.33;99213.92;1724631;82;20975;-71
2021/10/31 08:05:07;;;;;;;20.13;13.53;;;;;;;10.60;72.99;99221.64;1670882;85;21025;-70
2021/10/31 08:07:34;;;;;;;15.43;12.95;;;;;;;10.68;73.31;99224.67;1724371;82;21610;-69
2021/10/31 08:10:01;;;;;;;14.83;12.28;;;;;;;10.83;73.29;99234.24;1720157;82;20974;-71
2021/10/31 08:12:28;;;;;;;;;;;;;;;10.89;72.99;99229.97;1727393;82;20987;-70
2021/10/31 08:14:56;;;;;;;16.40;13.18;;;;;;;10.93;72.70;99231.97;1689430;83;20907;-69
2021/10/31 08:17:23;;;;;;;19.67;13.30;;;;;;;11.00;72.94;99237.68;1711130;82;21689;-69
2021/10/31 08:19:49;;;;;;;18.30;12.90;;;;;;;11.06;73.01;99238.63;1714352;82;20997;-69
2021/10/31 08:22:16;;;;;;;20.17;13.90;;;;;;;11.20;73.02;99239.55;1721620;82;20972;-70
2021/10/31 08:24:43;;;;;;;18.93;13.53;;;;;;;11.36;72.97;99227.72;1720212;82;21128;-70
2021/10/31 08:27:10;;;;;;;17.82;12.73;;;;;;;11.47;72.81;99236.72;1721306;82;20922;-68
2021/10/31 08:29:36;;;;;;;16.00;12.40;;;;;;;11.60;72.74;99238.99;1721357;82;20993;-70
2021/10/31 08:32:06;;;;;;;16.20;13.43;;;;;;;11.67;72.46;99244.22;1717088;82;20906;-69
2021/10/31 08:34:34;;;;;;;14.75;12.88;;;;;;;11.69;72.47;99241.53;1720747;82;21529;-69
2021/10/31 08:37:01;;;;;;;18.50;13.13;;;;;;;11.69;72.23;99251.52;1720312;82;20957;-72
2021/10/31 08:39:28;;;;;;;17.02;13.68;;;;;;;11.68;72.22;99245.05;1718193;82;20986;-70
2021/10/31 08:41:55;;;;;;;18.10;12.60;;;;;;;11.70;72.16;99249.27;1709607;82;21057;-70
2021/10/31 08:44:21;;;;;;;17.82;13.98;;;;;;;11.71;72.05;99248.35;1710051;82;21890;-71
2021/10/31 08:46:48;;;;;;;17.55;14.10;;;;;;;11.73;72.21;99253.00;1709543;82;20970;-69
2021/10/31 08:49:16;;;;;;;16.32;13.40;;;;;;;11.75;72.14;99260.30;1704950;83;21009;-68
2021/10/31 08:51:43;;;;;;;17.90;13.90;;;;;;;11.75;72.09;99262.92;1705848;83;20962;-70
2021/10/31 08:54:10;;;;;;;15.35;12.45;;;;;;;11.79;72.14;99259.20;1706091;83;21065;-70
2021/10/31 08:56:36;;;;;;;19.62;13.68;;;;;;;11.89;72.08;99257.37;1687561;83;20988;-70
2021/10/31 08:59:03;;;;;;;14.77;12.93;;;;;;;11.95;71.80;99259.61;1715815;82;21903;-70
2021/10/31 09:01:31;;;;;;;17.15;13.50;;;;;;;11.96;71.88;99256.91;1705487;83;20962;-69
2021/10/31 09:03:57;;;;;;;17.17;12.70;;;;;;;11.95;71.83;99255.21;1707152;82;20974;-70
2021/10/31 09:06:28;;;;;;;15.33;13.27;;;;;;;12.02;71.80;99254.39;1704559;83;21059;-70
2021/10/31 09:08:59;;;;;;;15.15;13.18;;;;;;;12.04;71.81;99247.27;1705432;83;21909;-70
2021/10/31 09:11:33;;;;;;;19.07;12.93;;;;;;;12.02;71.47;99238.70;1706075;82;20973;-70
2021/10/31 09:14:02;;;;;;;18.20;13.38;;;;;;;12.09;71.88;99247.84;1705101;83;21935;-72
2021/10/31 09:16:29;;;;;;;17.02;12.90;;;;;;;12.22;71.90;99240.92;1707535;82;20954;-69
2021/10/31 09:18:56;;;;;;;14.85;12.00;;;;;;;12.23;71.40;99246.99;1704346;82;21124;-70
2021/10/31 09:21:28;;;;;;;15.72;11.60;;;;;;;12.25;71.44;99245.97;1704564;83;21046;-70
2021/10/31 09:23:52;;;;;;;15.00;12.18;;;;;;;12.42;71.49;99248.02;1682729;83;21013;-71
2021/10/31 09:26:19;;;;;;;17.03;12.87;;;;;;;12.42;71.49;99248.02;1708398;83;21470;-71
2021/10/31 09:28:47;;;;;;;13.05;11.73;;;;;;;12.54;71.69;99248.54;1682460;83;21507;-71
2021/10/31 09:31:14;;;;;;;16.52;12.53;;;;;;;12.68;71.64;99245.89;1687006;83;21502;-73
2021/10/31 09:33:41;;;;;;;13.85;11.40;;;;;;;12.80;71.64;99249.53;1686952;83;20952;-71
2021/10/31 09:36:08;;;;;;;13.65;12.25;;;;;;;12.95;71.54;99252.94;1701833;83;20927;-70
2021/10/31 09:38:37;;;;;;;16.00;12.88;;;;;;;13.03;71.44;99250.66;1706608;83;21038;-70
2021/10/31 09:41:04;;;;;;;13.78;11.75;;;;;;;13.08;71.26;99257.77;1703703;82;20899;-69
2021/10/31 09:43:37;;;;;;;15.55;12.70;;;;;;;13.11;71.20;99248.39;1713631;82;21066;-72
2021/10/31 09:46:01;;;;;;;14.07;11.83;;;;;;;13.13;71.10;99243.86;1714879;82;21457;-69
2021/10/31 09:48:31;;;;;;;13.80;12.18;;;;;;;13.13;71.10;99243.86;1720187;82;21141;-68
2021/10/31 09:51:00;;;;;;;15.70;11.88;;;;;;;13.23;71.16;99251.14;1713053;82;21018;-70
2021/10/31 09:53:28;;;;;;;16.17;12.30;;;;;;;13.25;70.97;99244.86;1715825;82;22004;-69
2021/10/31 09:55:57;;;;;;;16.82;12.47;;;;;;;13.23;70.74;99241.97;1710254;82;21954;-71
2021/10/31 09:58:34;;;;;;;12.60;11.05;;;;;;;13.18;70.75;99244.41;1717331;82;20937;-71
2021/10/31 10:01:00;;;;;;;15.55;12.53;;;;;;;13.17;70.54;99245.36;1717862;82;20938;-70
2021/10/31 10:03:40;;;;;;;18.20;12.03;;;;;;;13.17;70.65;99237.49;1720257;82;20913;-72
2021/10/31 10:06:22;;;;;;;13.40;11.53;;;;;;;13.27;70.67;99242.16;1716449;82;20899;-70
2021/10/31 10:09:08;;;;;;;12.90;11.53;;;;;;;13.30;70.58;99248.03;1712047;82;21080;-69
2021/10/31 10:11:43;;;;;;;15.50;13.00;;;;;;;13.36;70.61;99246.78;1712671;82;21090;-69
2021/10/31 10:14:22;;;;;;;15.13;12.10;;;;;;;13.43;70.63;99246.76;1689070;83;21459;-69
2021/10/31 10:16:47;;;;;;;14.35;12.75;;;;;;;13.42;70.57;99239.84;1710536;82;20926;-70
2021/10/31 10:19:24;;;;;;;20.48;12.50;;;;;;;13.42;70.61;99238.53;1713068;82;21899;-69
2021/10/31 10:22:11;;;;;;;15.78;13.13;;;;;;;13.37;70.42;99219.64;1695953;82;21366;-68
2021/10/31 10:24:40;;;;;;;;;;;;;;;13.45;70.36;99235.70;1719948;82;21429;-69
2021/10/31 10:27:09;;;;;;;18.23;13.08;;;;;;;13.40;70.33;99235.16;1711064;82;20730;-68
2021/10/31 10:29:39;;;;;;;16.45;14.18;;;;;;;13.41;70.49;99235.08;1716011;82;21984;-69
2021/10/31 10:32:20;;;;;;;14.90;12.98;;;;;;;13.43;70.42;99239.72;1714697;82;20950;-69
2021/10/31 10:34:57;;;;;;;14.75;12.35;;;;;;;13.43;70.29;99237.10;1710715;82;21064;-69
2021/10/31 10:37:33;;;;;;;13.90;12.20;;;;;;;13.32;70.48;99224.34;1718305;82;20957;-68
2021/10/31 10:40:06;;;;;;;16.23;12.58;;;;;;;13.32;70.48;99224.34;1723034;82;20997;-69
2021/10/31 10:42:37;;;;;;;19.73;13.60;;;;;;;13.39;70.20;99238.73;1717560;82;20978;-69
2021/10/31 10:45:14;;;;;;;16.82;13.58;;;;;;;13.44;70.33;99241.87;1717809;82;21009;-70
2021/10/31 10:47:46;;;;;;;21.45;14.65;;;;;;;13.43;70.13;99245.45;1721040;82;21079;-70
2021/10/31 10:50:18;;;;;;;18.57;13.45;;;;;;;13.44;70.21;99243.18;1723266;82;21029;-69
2021/10/31 10:52:45;;;;;;;14.03;12.53;;;;;;;13.51;70.37;99240.53;1722644;82;20903;-70
2021/10/31 10:55:16;;;;;;;15.80;13.22;;;;;;;13.61;70.48;99246.85;1715353;82;21123;-70
2021/10/31 10:57:48;;;;;;;19.27;11.85;;;;;;;13.77;70.57;99245.80;1712561;82;21086;-69
2021/10/31 11:00:27;;;;;;;14.58;12.30;;;;;;;13.91;70.31;99239.61;1716722;82;21805;-69
2021/10/31 11:03:08;;;;;;;13.90;11.95;;;;;;;13.98;70.15;99240.88;1715138;82;20974;-71
2021/10/31 11:05:41;;;;;;;15.50;11.10;;;;;;;14.02;70.22;99232.67;1713729;82;20946;-69
2021/10/31 11:08:14;;;;;;;15.90;12.73;;;;;;;14.02;69.96;99234.46;1717517;82;20990;-69
2021/10/31 11:11:03;;;;;;;15.15;13.10;;;;;;;13.98;69.89;99233.01;1698246;82;20973;-70
2021/10/31 11:13:31;;;;;;;14.68;13.13;;;;;;;13.95;69.96;99236.68;1716204;82;21055;-69
2021/10/31 11:16:02;;;;;;;14.63;13.00;;;;;;;13.97;70.12;99234.77;1723311;82;20997;-69
2021/10/31 11:18:30;;;;;;;18.02;13.20;;;;;;;13.95;69.98;99234.05;1721848;82;20957;-70
2021/10/31 11:20:57;;;;;;;18.32;13.48;;;;;;;13.89;70.09;99226.58;1720209;82;20961;-70
2021/10/31 11:23:23;;;;;;;17.27;13.10;;;;;;;13.86;69.84;99226.80;1723979;82;20949;-70
2021/10/31 11:25:51;;;;;;;15.68;12.80;;;;;;;13.80;69.96;99227.22;1724488;82;22225;-70
2021/10/31 11:28:20;;;;;;;17.12;13.05;;;;;;;13.77;69.93;99223.50;1705133;82;20958;-70
2021/10/31 11:30:50;;;;;;;16.40;12.37;;;;;;;13.79;70.09;99230.80;1725539;82;20923;-70
2021/10/31 11:33:18;;;;;;;16.20;12.25;;;;;;;13.86;70.10;99230.28;1716839;82;21017;-71
2021/10/31 11:35:45;;;;;;;14.75;11.93;;;;;;;13.94;70.06;99229.73;1719520;82;21011;-71
2021/10/31 11:38:22;;;;;;;15.00;12.58;;;;;;;13.96;69.69;99227.02;1722016;82;21523;-70
2021/10/31 11:41:08;;;;;;;19.75;12.90;;;;;;;13.96;69.69;99227.02;1714003;82;26623;-70
2021/10/31 11:43:39;;;;;;;12.68;11.20;;;;;;;13.98;70.13;99228.59;1723159;82;21925;-70
2021/10/31 11:46:06;;;;;;;13.78;11.83;;;;;;;14.05;69.99;99221.95;1720058;82;20958;-71
2021/10/31 11:48:37;;;;;;;14.55;12.50;;;;;;;14.12;70.19;99224.17;1718872;82;21093;-71
2021/10/31 11:51:11;;;;;;;12.85;11.28;;;;;;;14.14;69.99;99230.14;1692333;83;21076;-70
2021/10/31 11:53:51;;;;;;;17.95;12.95;;;;;;;14.17;70.03;99231.23;1724934;82;20868;-70
2021/10/31 11:56:24;;;;;;;14.20;10.60;;;;;;;14.17;70.17;99225.53;1718213;82;21508;-71
2021/10/31 11:59:01;;;;;;;13.48;10.90;;;;;;;14.18;69.97;99229.00;1720048;82;20936;-70
2021/10/31 12:01:43;;;;;;;12.80;10.68;;;;;;;14.16;70.00;99232.19;1679430;83;21456;-71
2021/10/31 12:05:14;;;;;;;19.25;11.10;;;;;;;14.19;69.99;99238.54;1704996;82;21047;-72
2021/10/31 12:07:12;;;;;;;14.00;11.68;;;;;;;14.25;70.15;99234.16;1713745;82;20990;-72
2021/10/31 12:09:40;;;;;;;15.32;10.93;;;;;;;14.31;69.93;99227.16;1689626;83;20950;-72